Time;durP1;ratioP1;P1;durP2;ratioP2;P2;SDS_P1;SDS_P2;PMS_P1;PMS_P2;Temp;Humidity;BMP_temperature;BMP_pressure;BME280_temperature;BME280_humidity;BME280_pressure;Samples;Min_cycle;Max_cycle;Signal;HPM_P1;HPM_P2
2023/12/19 00:01:24;;;;;;;35.47;23.67;;;;;;;4.58;100.00;102611.00;6127471;23;20010;-77
2023/12/19 00:03:49;;;;;;;37.85;22.98;;;;;;;4.59;100.00;102607.56;6127614;23;20351;-85
2023/12/19 00:06:14;;;;;;;32.05;21.70;;;;;;;4.11;100.00;102530.44;6127243;23;20052;-80
2023/12/19 00:08:40;;;;;;;34.20;22.98;;;;;;;4.59;100.00;102598.19;6127357;23;20081;-83
2023/12/19 00:11:06;;;;;;;34.85;22.98;;;;;;;4.58;100.00;102573.47;6127164;23;20455;-83
2023/12/19 00:13:32;;;;;;;33.17;21.05;;;;;;;4.60;100.00;102581.97;6126972;23;20002;-76
2023/12/19 00:15:58;;;;;;;37.20;23.30;;;;;;;4.61;100.00;102572.59;6127366;23;20010;-86
2023/12/19 00:18:24;;;;;;;36.20;23.27;;;;;;;4.63;100.00;102570.88;6127090;23;20009;-80
2023/12/19 00:20:52;;;;;;;37.22;23.83;;;;;;;4.62;100.00;102561.47;6127588;23;20011;-83
2023/12/19 00:23:18;;;;;;;38.15;24.60;;;;;;;4.56;100.00;102554.75;6127192;23;20013;-86
2023/12/19 00:25:43;;;;;;;34.10;22.45;;;;;;;4.60;100.00;102558.09;6127172;23;20006;-83
2023/12/19 00:28:08;;;;;;;36.63;23.38;;;;;;;4.65;100.00;102555.50;6126773;23;20006;-83
2023/12/19 00:30:34;;;;;;;38.08;24.20;;;;;;;4.64;100.00;102543.59;6126954;23;20021;-75
2023/12/19 00:32:59;;;;;;;39.90;23.42;;;;;;;4.65;100.00;102537.59;6125748;23;20013;-85
2023/12/19 00:35:24;;;;;;;37.50;24.42;;;;;;;4.23;100.00;102468.97;6127253;23;20084;-82
2023/12/19 00:37:50;;;;;;;41.50;25.13;;;;;;;4.65;100.00;102535.88;6127091;23;20324;-81
2023/12/19 00:40:15;;;;;;;40.42;25.02;;;;;;;4.26;100.00;102476.59;6127070;23;20002;-86
2023/12/19 00:42:41;;;;;;;34.92;22.85;;;;;;;4.36;100.00;102485.03;6126781;23;20029;-79
2023/12/19 00:45:07;;;;;;;37.22;22.98;;;;;;;4.68;100.00;102530.72;6126537;23;20029;-81
2023/12/19 00:47:32;;;;;;;34.85;21.80;;;;;;;4.65;100.00;102512.84;6127095;23;20006;-82
2023/12/19 00:49:58;;;;;;;36.90;23.40;;;;;;;4.67;100.00;102516.22;6125614;23;20005;-80
2023/12/19 00:52:24;;;;;;;36.08;22.50;;;;;;;4.73;100.00;102505.09;6127192;23;20403;-82
2023/12/19 00:54:49;;;;;;;37.13;23.63;;;;;;;4.63;100.00;102481.31;6125119;23;20013;-82
2023/12/19 00:57:14;;;;;;;39.85;24.23;;;;;;;4.67;100.00;102487.25;6126996;23;20002;-80
2023/12/19 00:59:40;;;;;;;36.20;23.00;;;;;;;4.73;100.00;102490.59;6126550;23;20428;-85
2023/12/19 01:02:06;;;;;;;39.08;23.77;;;;;;;4.46;100.00;102445.69;6127096;23;20006;-82
2023/12/19 01:04:31;;;;;;;38.28;22.77;;;;;;;4.75;100.00;102482.88;6127032;23;20032;-80
2023/12/19 01:06:56;;;;;;;40.65;24.30;;;;;;;4.76;100.00;102480.31;6126681;23;20413;-86
2023/12/19 01:09:22;;;;;;;40.17;25.05;;;;;;;4.66;100.00;102448.00;6126622;23;20025;-86
2023/12/19 01:11:47;;;;;;;38.50;24.45;;;;;;;4.52;100.00;102430.28;6127143;23;20005;-86
2023/12/19 01:14:12;;;;;;;36.78;23.27;;;;;;;4.41;100.00;102413.34;6126692;23;20085;-86
2023/12/19 01:16:38;;;;;;;38.38;23.55;;;;;;;4.75;100.00;102470.94;6126786;23;20464;-80
2023/12/19 01:19:06;;;;;;;39.92;24.17;;;;;;;4.78;100.00;102473.44;6127077;23;20405;-78
2023/12/19 01:21:32;;;;;;;37.60;22.63;;;;;;;4.78;100.00;102473.44;6127087;23;20329;-86
2023/12/19 01:23:57;;;;;;;37.40;22.95;;;;;;;4.73;100.00;102454.75;6126573;23;20006;-78
2023/12/19 01:26:22;;;;;;;40.33;24.42;;;;;;;4.75;100.00;102455.59;6126544;23;20005;-82
2023/12/19 01:28:47;;;;;;;40.13;24.75;;;;;;;4.79;100.00;102457.22;6126339;23;20006;-83
2023/12/19 01:31:13;;;;;;;38.45;23.08;;;;;;;4.68;100.00;102430.09;6126435;23;20081;-77
2023/12/19 01:33:38;;;;;;;38.13;23.10;;;;;;;4.82;100.00;102459.75;6126489;23;20080;-78
2023/12/19 01:36:04;;;;;;;39.78;24.10;;;;;;;4.65;100.00;102430.97;6099921;23;20451;-76
2023/12/19 01:38:29;;;;;;;41.67;24.08;;;;;;;4.84;100.00;102454.63;6126388;23;20013;-78
2023/12/19 01:40:54;;;;;;;38.13;24.27;;;;;;;4.85;100.00;102464.84;6126541;23;20412;-75
2023/12/19 01:43:21;;;;;;;40.25;24.90;;;;;;;4.79;100.00;102464.91;6126246;23;20009;-76
2023/12/19 01:45:48;;;;;;;44.88;25.95;;;;;;;4.67;100.00;102439.47;6126513;23;20005;-77
2023/12/19 01:48:15;;;;;;;38.97;24.35;;;;;;;4.61;100.00;102429.31;6126311;23;20009;-80
2023/12/19 01:50:41;;;;;;;42.55;24.95;;;;;;;4.84;100.00;102465.69;6126211;23;20077;-82
2023/12/19 01:53:08;;;;;;;41.33;25.17;;;;;;;4.71;100.00;102441.13;6126270;23;20033;-75
2023/12/19 01:55:33;;;;;;;46.13;27.58;;;;;;;4.85;100.00;102457.16;6126402;23;20009;-79
2023/12/19 01:57:59;;;;;;;43.08;25.60;;;;;;;4.53;100.00;102398.72;6126220;23;20012;-78
2023/12/19 02:00:25;;;;;;;42.08;24.65;;;;;;;4.87;100.00;102449.44;6124284;23;20013;-76
2023/12/19 02:02:51;;;;;;;40.55;24.83;;;;;;;4.86;100.00;102450.31;6126422;23;20009;-77
2023/12/19 02:05:17;;;;;;;39.53;25.42;;;;;;;4.70;100.00;102420.66;6126364;23;20006;-76
2023/12/19 02:07:43;;;;;;;42.00;26.13;;;;;;;4.78;100.00;102435.06;6126290;23;20126;-76
2023/12/19 02:10:09;;;;;;;40.22;25.38;;;;;;;4.87;100.00;102444.34;6126476;23;20006;-75
2023/12/19 02:12:35;;;;;;;40.13;24.55;;;;;;;4.89;100.00;102437.47;6126190;23;20015;-76
2023/12/19 02:15:01;;;;;;;41.55;26.52;;;;;;;4.82;100.00;102426.50;6125868;23;20452;-76
2023/12/19 02:17:26;;;;;;;39.00;24.63;;;;;;;4.90;100.00;102431.47;6125628;23;20006;-79
2023/12/19 02:19:52;;;;;;;43.08;24.50;;;;;;;4.90;100.00;102419.53;6125945;23;20037;-79
2023/12/19 02:22:18;;;;;;;39.88;24.67;;;;;;;4.94;100.00;102419.50;6125985;23;20033;-76
2023/12/19 02:24:44;;;;;;;44.88;25.23;;;;;;;4.71;100.00;102389.94;6126381;23;20005;-76
2023/12/19 02:27:11;;;;;;;42.75;24.75;;;;;;;4.86;100.00;102410.22;6126497;23;20009;-76
2023/12/19 02:29:36;;;;;;;40.78;24.25;;;;;;;4.81;100.00;102396.63;6126130;23;20002;-77
2023/12/19 02:32:02;;;;;;;39.92;25.45;;;;;;;4.93;100.00;102415.25;6125809;23;20328;-78
2023/12/19 02:34:27;;;;;;;37.58;23.58;;;;;;;4.92;100.00;102413.53;6125918;23;20002;-77
2023/12/19 02:36:53;;;;;;;35.85;23.27;;;;;;;4.71;100.00;102389.09;6125944;23;20060;-76
2023/12/19 02:39:18;;;;;;;41.63;25.30;;;;;;;4.85;100.00;102410.25;6123712;23;20077;-76
2023/12/19 02:41:44;;;;;;;40.88;25.17;;;;;;;4.82;100.00;102406.00;6123204;23;20010;-75
2023/12/19 02:44:09;;;;;;;38.20;23.85;;;;;;;4.70;100.00;102388.25;6125797;23;20009;-82
2023/12/19 02:46:35;;;;;;;37.88;23.95;;;;;;;4.77;100.00;102400.09;6125762;23;20010;-81
2023/12/19 02:49:00;;;;;;;41.47;24.02;;;;;;;4.74;100.00;102397.59;6125948;23;20009;-76
2023/12/19 02:51:27;;;;;;;42.22;23.58;;;;;;;4.71;100.00;102395.06;6126051;23;20022;-79
2023/12/19 02:53:53;;;;;;;38.92;24.33;;;;;;;4.72;100.00;102370.31;6125840;23;20013;-82
2023/12/19 02:56:19;;;;;;;37.40;23.92;;;;;;;4.53;100.00;102336.47;6125975;23;20013;-82
2023/12/19 02:58:45;;;;;;;39.65;23.95;;;;;;;4.52;100.00;102343.31;6125848;23;20009;-77
2023/12/19 03:01:10;;;;;;;43.63;24.10;;;;;;;4.69;100.00;102367.81;6125692;23;20413;-78
2023/12/19 03:03:36;;;;;;;42.83;24.58;;;;;;;4.68;100.00;102371.22;6125399;23;20002;-77
2023/12/19 03:06:01;;;;;;;39.45;23.23;;;;;;;4.68;100.00;102364.41;6125637;23;20002;-84
2023/12/19 03:08:27;;;;;;;42.00;23.77;;;;;;;4.66;100.00;102361.03;6125500;23;20002;-84
2023/12/19 03:10:52;;;;;;;42.58;24.15;;;;;;;4.67;100.00;102354.19;6125556;23;20001;-83
2023/12/19 03:13:18;;;;;;;39.65;23.75;;;;;;;4.66;100.00;102355.06;6125588;23;20298;-85
2023/12/19 03:15:43;;;;;;;41.20;24.17;;;;;;;4.66;100.00;102347.38;6125151;23;20099;-83
2023/12/19 03:18:09;;;;;;;41.13;22.73;;;;;;;4.66;100.00;102335.44;6125498;23;20077;-82
2023/12/19 03:20:34;;;;;;;42.83;24.20;;;;;;;4.65;100.00;102338.88;6125534;23;20430;-83
2023/12/19 03:22:59;;;;;;;42.47;23.05;;;;;;;4.59;100.00;102331.25;6125544;23;20018;-85
2023/12/19 03:25:25;;;;;;;39.25;23.42;;;;;;;4.64;100.00;102332.06;6125964;23;20002;-76
2023/12/19 03:27:50;;;;;;;42.15;23.92;;;;;;;4.61;100.00;102317.56;6125338;23;20013;-76
2023/12/19 03:30:16;;;;;;;40.20;23.85;;;;;;;4.61;100.00;102314.16;6124905;23;20037;-78
2023/12/19 03:32:41;;;;;;;39.55;23.27;;;;;;;4.54;100.00;102279.34;6125618;23;20006;-84
2023/12/19 03:35:07;;;;;;;37.58;22.00;;;;;;;4.49;100.00;102274.25;6123821;23;20012;-86
2023/12/19 03:37:33;;;;;;;39.42;23.17;;;;;;;4.62;100.00;102297.94;6126010;23;20014;-81
2023/12/19 03:39:58;;;;;;;36.15;21.17;;;;;;;4.66;100.00;102297.06;6125633;23;20018;-85
2023/12/19 03:42:23;;;;;;;39.85;23.02;;;;;;;4.37;100.00;102237.81;6125658;23;20042;-84
2023/12/19 03:44:49;;;;;;;36.78;21.75;;;;;;;4.37;100.00;102236.09;6125223;23;20385;-83
2023/12/19 03:47:16;;;;;;;37.33;21.65;;;;;;;4.68;100.00;102281.66;6125272;23;20406;-85
2023/12/19 03:49:41;;;;;;;37.45;21.58;;;;;;;4.71;100.00;102281.63;6125836;23;20033;-81
2023/12/19 03:52:08;;;;;;;40.22;22.17;;;;;;;4.46;100.00;102242.78;6148870;23;20085;-81
2023/12/19 03:54:33;;;;;;;35.53;22.10;;;;;;;4.71;100.00;102285.03;6125674;23;20010;-83
2023/12/19 03:56:58;;;;;;;41.75;22.48;;;;;;;4.63;100.00;102270.69;6125703;23;20052;-86
2023/12/19 03:59:24;;;;;;;41.10;23.27;;;;;;;4.75;100.00;102278.16;6125219;23;20328;-83
2023/12/19 04:01:51;;;;;;;39.75;22.48;;;;;;;4.70;100.00;102251.78;6125371;23;20076;-84
2023/12/19 04:04:17;;;;;;;37.67;22.48;;;;;;;4.67;100.00;102260.34;6125423;23;20002;-86
2023/12/19 04:06:43;;;;;;;39.65;23.65;;;;;;;4.76;100.00;102270.44;6122850;23;20010;-82
2023/12/19 04:09:09;;;;;;;41.33;23.33;;;;;;;4.70;100.00;102255.19;6125406;23;20025;-85
2023/12/19 04:11:34;;;;;;;48.05;25.20;;;;;;;4.75;100.00;102263.66;6125717;23;20006;-83
2023/12/19 04:14:00;;;;;;;46.95;26.88;;;;;;;4.78;100.00;102258.47;6125284;23;20440;-82
2023/12/19 04:16:25;;;;;;;52.42;28.48;;;;;;;4.80;100.00;102250.75;6124955;23;20081;-77
2023/12/19 04:18:50;;;;;;;55.85;30.20;;;;;;;4.82;100.00;102243.94;6125097;23;20002;-84
2023/12/19 04:21:16;;;;;;;56.88;31.20;;;;;;;4.81;100.00;102243.06;6125241;23;20439;-85
2023/12/19 04:23:41;;;;;;;55.60;30.83;;;;;;;4.83;100.00;102230.25;6125179;23;20010;-84
2023/12/19 04:26:06;;;;;;;59.25;31.00;;;;;;;4.82;100.00;102223.47;6125455;23;20020;-85
2023/12/19 04:28:32;;;;;;;59.75;32.17;;;;;;;4.86;100.00;102214.84;6125468;23;20006;-84
2023/12/19 04:30:57;;;;;;;58.38;29.95;;;;;;;4.88;100.00;102210.53;6125305;23;20470;-85
2023/12/19 04:33:22;;;;;;;59.88;32.67;;;;;;;4.61;100.00;102158.09;6125291;23;20002;-85
2023/12/19 04:35:47;;;;;;;67.85;33.15;;;;;;;4.90;100.00;102199.41;6125395;23;20057;-84
2023/12/19 04:38:14;;;;;;;62.22;31.90;;;;;;;4.93;100.00;102202.78;6125187;23;20065;-80
2023/12/19 04:40:44;;;;;;;55.70;31.23;;;;;;;4.90;100.00;102190.88;6125618;23;20002;-76
2023/12/19 04:43:09;;;;;;;61.42;30.77;;;;;;;4.95;100.00;102198.50;6124139;23;20010;-83
2023/12/19 04:45:34;;;;;;;58.78;32.75;;;;;;;4.74;100.00;102159.59;6126967;23;20421;-86
2023/12/19 04:48:00;;;;;;;67.07;33.67;;;;;;;4.98;100.00;102191.59;6127165;23;20029;-85
2023/12/19 04:50:25;;;;;;;60.38;32.55;;;;;;;4.76;100.00;102147.63;6125218;23;20013;-84
2023/12/19 04:52:50;;;;;;;68.80;34.25;;;;;;;5.03;100.00;102187.25;6127028;23;20069;-84
2023/12/19 04:55:15;;;;;;;63.22;32.85;;;;;;;5.07;100.00;102180.34;6125449;23;20096;-83
2023/12/19 04:57:41;;;;;;;59.13;31.48;;;;;;;5.10;100.00;102178.56;6127205;23;20085;-84
2023/12/19 05:00:07;;;;;;;60.33;31.38;;;;;;;5.13;100.00;102182.81;6127340;23;20372;-85
2023/12/19 05:02:32;;;;;;;65.95;32.25;;;;;;;5.14;100.00;102184.47;6127024;23;20010;-82
2023/12/19 05:04:58;;;;;;;67.95;35.17;;;;;;;5.12;100.00;102171.72;6124934;23;20432;-82
2023/12/19 05:07:24;;;;;;;65.07;32.63;;;;;;;5.16;100.00;102172.50;6126552;23;20479;-85
2023/12/19 05:09:50;;;;;;;61.63;31.45;;;;;;;5.17;100.00;102174.16;6126781;23;20374;-83
2023/12/19 05:12:15;;;;;;;63.63;34.65;;;;;;;5.13;100.00;102160.59;6126977;23;20006;-81
2023/12/19 05:14:40;;;;;;;60.03;31.65;;;;;;;5.22;100.00;102166.41;6126999;23;20010;-76
2023/12/19 05:17:06;;;;;;;59.53;32.17;;;;;;;5.13;100.00;102154.63;6127102;23;20006;-76
2023/12/19 05:19:31;;;;;;;57.70;31.95;;;;;;;5.27;100.00;102162.88;6127020;23;20436;-79
2023/12/19 05:21:57;;;;;;;60.78;32.42;;;;;;;5.29;100.00;102157.72;6126783;23;20006;-76
2023/12/19 05:24:22;;;;;;;57.33;33.10;;;;;;;5.13;100.00;102131.59;6126565;23;20074;-77
2023/12/19 05:26:47;;;;;;;59.15;31.77;;;;;;;5.26;100.00;102150.09;6125109;23;20010;-75
2023/12/19 05:29:13;;;;;;;54.60;30.63;;;;;;;5.36;100.00;102157.56;6126628;23;20593;-77
2023/12/19 05:31:38;;;;;;;58.88;31.33;;;;;;;5.37;100.00;102154.13;6126563;23;20013;-77
2023/12/19 05:34:03;;;;;;;61.17;32.92;;;;;;;5.38;100.00;102149.84;6126627;23;20017;-76
2023/12/19 05:36:33;;;;;;;58.28;31.65;;;;;;;5.43;100.00;102153.19;6126474;23;20069;-79
2023/12/19 05:38:59;;;;;;;52.92;30.13;;;;;;;5.43;100.00;102158.31;6126694;23;20010;-77
2023/12/19 05:41:24;;;;;;;54.83;30.58;;;;;;;5.45;100.00;102169.34;6126876;23;20424;-81
2023/12/19 05:43:53;;;;;;;56.38;34.13;;;;;;;5.45;100.00;102154.00;6126481;23;20045;-77
2023/12/19 05:46:19;;;;;;;54.72;31.13;;;;;;;5.46;100.00;102153.94;6126622;23;20029;-76
2023/12/19 05:48:44;;;;;;;54.28;32.17;;;;;;;5.47;100.00;102144.53;6126725;23;20029;-77
2023/12/19 05:51:10;;;;;;;52.58;30.73;;;;;;;5.39;100.00;102126.75;6126107;23;20333;-79
2023/12/19 05:53:37;;;;;;;53.08;30.90;;;;;;;5.49;100.00;102129.97;6126178;23;20006;-79
2023/12/19 05:56:02;;;;;;;51.65;30.95;;;;;;;5.43;100.00;102123.28;6126730;23;20017;-78
2023/12/19 05:58:28;;;;;;;46.33;29.58;;;;;;;5.46;100.00;102112.97;6126384;23;20006;-76
2023/12/19 06:00:55;;;;;;;49.80;30.58;;;;;;;5.28;100.00;102077.47;6126445;23;20365;-78
2023/12/19 06:03:21;;;;;;;48.97;29.17;;;;;;;5.53;100.00;102112.84;6126205;23;20429;-86
2023/12/19 06:05:46;;;;;;;52.65;30.20;;;;;;;5.44;100.00;102103.63;6126419;23;20002;-77
2023/12/19 06:08:11;;;;;;;51.33;30.00;;;;;;;5.53;100.00;102120.53;6126357;23;20034;-77
2023/12/19 06:10:37;;;;;;;52.97;29.77;;;;;;;5.57;100.00;102119.56;6126166;23;20089;-81
2023/12/19 06:13:02;;;;;;;46.10;29.98;;;;;;;5.42;100.00;102095.16;6126318;23;20049;-79
2023/12/19 06:15:28;;;;;;;50.75;29.48;;;;;;;5.60;100.00;102117.78;6126495;23;20053;-77
2023/12/19 06:17:53;;;;;;;49.28;29.13;;;;;;;5.64;100.00;102116.84;6126559;23;19998;-85
2023/12/19 06:20:18;;;;;;;53.00;31.08;;;;;;;5.33;100.00;102062.88;6126030;23;20006;-88
2023/12/19 06:22:44;;;;;;;49.67;29.13;;;;;;;5.67;100.00;102108.25;6126003;23;20006;-86
2023/12/19 06:25:09;;;;;;;48.28;29.33;;;;;;;5.64;100.00;102093.78;6124354;23;20006;-76
2023/12/19 06:27:35;;;;;;;48.03;30.63;;;;;;;5.41;100.00;102066.13;6126582;23;20013;-76
2023/12/19 06:30:02;;;;;;;49.33;28.45;;;;;;;5.69;100.00;102103.94;6126423;23;20002;-78
2023/12/19 06:32:28;;;;;;;47.42;29.33;;;;;;;5.53;100.00;102087.22;6126067;23;20340;-75
2023/12/19 06:34:55;;;;;;;43.67;28.00;;;;;;;5.60;100.00;102094.72;6126191;23;20013;-78
2023/12/19 06:37:20;;;;;;;44.55;29.55;;;;;;;5.71;100.00;102105.59;6126176;23;20002;-76
2023/12/19 06:39:45;;;;;;;44.95;27.27;;;;;;;5.73;100.00;102103.00;6126017;23;20048;-76
2023/12/19 06:42:11;;;;;;;45.22;28.48;;;;;;;5.76;100.00;102108.88;6126246;23;20091;-77
2023/12/19 06:44:36;;;;;;;43.90;27.70;;;;;;;5.54;100.00;102060.72;6125708;23;20013;-81
2023/12/19 06:47:01;;;;;;;44.90;28.05;;;;;;;5.79;100.00;102087.47;6125449;23;20013;-76
2023/12/19 06:49:27;;;;;;;44.08;29.60;;;;;;;5.80;100.00;102094.31;6126326;23;20082;-78
2023/12/19 06:51:53;;;;;;;46.05;30.35;;;;;;;5.81;100.00;102096.00;6125822;23;20029;-77
2023/12/19 06:54:18;;;;;;;43.28;28.63;;;;;;;5.58;100.00;102055.47;6125736;23;20009;-80
2023/12/19 06:56:43;;;;;;;44.38;27.30;;;;;;;5.84;100.00;102090.78;6125721;23;20014;-78
2023/12/19 06:59:09;;;;;;;40.92;27.30;;;;;;;5.84;100.00;102101.03;6126080;23;20092;-86
2023/12/19 07:01:35;;;;;;;38.63;27.90;;;;;;;5.72;100.00;102070.56;6125832;23;20002;-77
2023/12/19 07:04:01;;;;;;;40.67;27.38;;;;;;;5.86;100.00;102091.59;6126050;23;20006;-77
2023/12/19 07:06:26;;;;;;;41.47;27.80;;;;;;;5.85;100.00;102094.19;6126242;23;20006;-78
2023/12/19 07:08:52;;;;;;;38.25;25.98;;;;;;;5.62;100.00;102044.31;6126046;23;20072;-77
2023/12/19 07:11:19;;;;;;;42.15;26.73;;;;;;;5.86;100.00;102083.88;6125715;23;20010;-81
2023/12/19 07:13:45;;;;;;;38.85;26.05;;;;;;;5.87;100.00;102088.13;6122795;23;20073;-74
2023/12/19 07:16:14;;;;;;;40.20;26.77;;;;;;;5.89;100.00;102086.38;6148446;23;20344;-77
2023/12/19 07:18:46;;;;;;;40.60;26.85;;;;;;;5.75;100.00;102050.81;6125387;23;20041;-74
2023/12/19 07:21:23;;;;;;;38.85;26.63;;;;;;;5.91;100.00;102069.28;6123363;23;20010;-74
2023/12/19 07:23:50;;;;;;;42.13;26.02;;;;;;;5.83;100.00;102068.59;6125653;23;20095;-81
2023/12/19 07:26:23;;;;;;;35.60;25.35;;;;;;;5.77;100.00;102045.66;6125416;23;20474;-75
2023/12/19 07:28:50;;;;;;;42.17;25.40;;;;;;;5.86;100.00;102063.38;6125688;23;20013;-75
2023/12/19 07:31:23;;;;;;;37.40;25.42;;;;;;;5.69;100.00;102030.44;6125007;23;20009;-74
2023/12/19 07:33:53;;;;;;;37.58;25.55;;;;;;;5.92;100.00;102068.41;6125256;23;20010;-78
2023/12/19 07:36:19;;;;;;;35.88;25.10;;;;;;;5.95;100.00;102083.72;6125493;23;20006;-80
2023/12/19 07:38:44;;;;;;;38.80;25.00;;;;;;;5.54;100.00;102009.47;6125405;23;20009;-78
2023/12/19 07:41:15;;;;;;;36.03;24.65;;;;;;;5.98;100.00;102077.66;6124105;23;20002;-73
2023/12/19 07:43:40;;;;;;;36.50;25.00;;;;;;;6.00;100.00;102075.94;6126222;23;20081;-74
2023/12/19 07:46:06;;;;;;;36.97;25.08;;;;;;;5.67;100.00;102021.97;6126214;23;20269;-77
2023/12/19 07:48:32;;;;;;;36.13;23.90;;;;;;;6.04;100.00;102075.81;6125532;23;20010;-75
2023/12/19 07:50:58;;;;;;;33.20;23.20;;;;;;;6.03;100.00;102068.16;6125434;23;20006;-77
2023/12/19 07:53:25;;;;;;;32.92;23.20;;;;;;;6.08;100.00;102070.59;6125328;23;20077;-76
2023/12/19 07:55:51;;;;;;;36.65;24.95;;;;;;;5.80;100.00;102021.66;6123720;23;20025;-76
2023/12/19 07:58:17;;;;;;;35.28;23.95;;;;;;;5.94;100.00;102046.13;6123936;23;20005;-83
2023/12/19 08:00:42;;;;;;;31.35;22.55;;;;;;;6.10;100.00;102064.56;6126078;23;20029;-74
2023/12/19 08:03:08;;;;;;;34.38;23.38;;;;;;;6.11;100.00;102058.56;6125761;23;20006;-85
2023/12/19 08:05:33;;;;;;;31.38;22.35;;;;;;;6.07;100.00;102054.34;6125694;23;20010;-86
2023/12/19 08:07:59;;;;;;;34.35;21.80;;;;;;;6.12;100.00;102057.66;6125410;23;20448;-84
2023/12/19 08:10:25;;;;;;;32.33;22.60;;;;;;;6.08;100.00;102042.38;6125509;23;20005;-78
2023/12/19 08:12:50;;;;;;;31.20;22.88;;;;;;;6.09;100.00;102036.38;6125669;23;20006;-87
2023/12/19 08:15:15;;;;;;;33.38;22.75;;;;;;;6.09;100.00;102034.66;6126195;23;20018;-87
2023/12/19 08:17:41;;;;;;;29.45;22.23;;;;;;;6.08;100.00;102043.22;6127232;23;20444;-85
2023/12/19 08:20:10;;;;;;;29.92;22.02;;;;;;;5.80;100.00;102019.09;6127447;23;20002;-90
2023/12/19 08:22:35;;;;;;;35.05;21.83;;;;;;;6.07;100.00;102059.50;6127732;23;20006;-87
2023/12/19 08:25:00;;;;;;;33.17;21.73;;;;;;;6.04;100.00;102052.72;6127537;23;20365;-87
2023/12/19 08:27:28;;;;;;;30.25;21.95;;;;;;;6.01;100.00;102029.72;6128059;23;20006;-87
2023/12/19 08:29:53;;;;;;;30.38;21.27;;;;;;;5.84;100.00;102007.91;6127627;23;20037;-87
2023/12/19 08:32:19;;;;;;;31.27;21.45;;;;;;;5.99;100.00;102048.56;6127368;23;20043;-84
2023/12/19 08:34:45;;;;;;;29.25;20.08;;;;;;;5.98;100.00;102037.47;6125715;23;20005;-86
2023/12/19 08:37:11;;;;;;;34.75;22.52;;;;;;;5.94;100.00;102041.00;6127365;23;20009;-85
2023/12/19 08:39:36;;;;;;;30.63;21.85;;;;;;;5.92;100.00;102037.66;6126864;23;20006;-85
2023/12/19 08:42:01;;;;;;;32.45;21.85;;;;;;;5.60;100.00;101994.78;6126828;23;20102;-82
2023/12/19 08:44:26;;;;;;;33.65;23.23;;;;;;;5.77;100.00;102009.78;6126823;23;20010;-85
2023/12/19 08:46:52;;;;;;;37.22;22.20;;;;;;;5.90;100.00;102034.28;6127180;23;20033;-80
2023/12/19 08:49:18;;;;;;;33.10;22.30;;;;;;;5.83;100.00;102017.31;6127027;23;20029;-80
2023/12/19 08:51:47;;;;;;;33.88;21.88;;;;;;;5.85;100.00;102020.69;6126944;23;20010;-79
2023/12/19 08:54:13;;;;;;;34.65;22.27;;;;;;;5.67;100.00;101991.22;6127193;23;20077;-78
2023/12/19 08:56:38;;;;;;;33.38;22.75;;;;;;;5.87;100.00;102020.63;6127086;23;20089;-77
2023/12/19 08:59:04;;;;;;;34.40;22.60;;;;;;;5.87;100.00;102011.22;6126984;23;20013;-79
2023/12/19 09:01:29;;;;;;;35.97;22.83;;;;;;;5.89;100.00;102021.44;6126831;23;20006;-81
2023/12/19 09:03:55;;;;;;;35.95;22.73;;;;;;;5.74;100.00;101979.09;6126353;23;20053;-78
2023/12/19 09:06:21;;;;;;;35.65;22.23;;;;;;;5.88;100.00;102006.94;6125252;23;20010;-75
2023/12/19 09:08:46;;;;;;;33.15;21.23;;;;;;;5.77;100.00;102004.63;6125148;23;20002;-74
2023/12/19 09:11:11;;;;;;;34.13;22.23;;;;;;;5.86;100.00;102006.97;6127171;23;20101;-71
2023/12/19 09:13:38;;;;;;;29.67;21.00;;;;;;;5.87;100.00;102018.91;6126826;23;20002;-78
2023/12/19 09:16:06;;;;;;;35.38;22.77;;;;;;;5.55;100.00;101957.34;6126592;23;20013;-84
2023/12/19 09:18:32;;;;;;;33.00;22.13;;;;;;;5.87;100.00;102003.53;6126177;23;20002;-77
2023/12/19 09:20:57;;;;;;;32.47;22.38;;;;;;;5.66;100.00;101963.06;6126460;23;20006;-82
2023/12/19 09:23:22;;;;;;;33.15;21.52;;;;;;;5.86;100.00;102006.97;6126613;23;20340;-84
2023/12/19 09:25:48;;;;;;;31.65;21.38;;;;;;;5.86;100.00;101994.16;6126391;23;20080;-82
2023/12/19 09:28:13;;;;;;;30.65;20.60;;;;;;;5.86;100.00;101996.72;6125885;23;20014;-85
2023/12/19 09:30:39;;;;;;;32.47;20.70;;;;;;;5.87;100.00;101987.31;6127178;23;20001;-85
2023/12/19 09:33:04;;;;;;;29.88;19.70;;;;;;;5.88;100.00;101991.56;6125083;23;20053;-81
2023/12/19 09:35:30;;;;;;;31.67;19.95;;;;;;;5.56;100.00;101926.56;6126635;23;20432;-79
2023/12/19 09:38:01;;;;;;;26.77;18.83;;;;;;;5.64;100.00;101941.75;6127029;23;20022;-84
2023/12/19 09:40:29;;;;;;;30.15;20.48;;;;;;;5.76;100.00;101965.34;6126472;23;20009;-84
2023/12/19 09:42:58;;;;;;;31.08;20.70;;;;;;;5.91;100.00;101983.84;6126588;23;20037;-80
2023/12/19 09:45:23;;;;;;;29.08;19.30;;;;;;;5.94;100.00;101982.03;6148766;23;20014;-84
2023/12/19 09:48:00;;;;;;;31.08;20.70;;;;;;;5.89;100.00;101980.44;6127024;23;20006;-82
2023/12/19 09:50:27;;;;;;;29.30;19.65;;;;;;;5.89;100.00;101968.44;6126537;23;20036;-79
2023/12/19 09:52:59;;;;;;;26.38;18.38;;;;;;;5.91;100.00;101971.03;6125217;23;20109;-79
2023/12/19 09:55:28;;;;;;;24.15;18.15;;;;;;;5.67;100.00;101921.19;6127033;23;20036;-86
2023/12/19 09:57:55;;;;;;;27.60;17.67;;;;;;;6.01;100.00;101962.22;6127216;23;20106;-85
2023/12/19 10:00:22;;;;;;;28.17;18.48;;;;;;;6.02;100.00;101959.63;6126419;23;20005;-83
2023/12/19 10:02:48;;;;;;;26.00;18.55;;;;;;;6.02;100.00;101958.78;6126756;23;20072;-78
2023/12/19 10:05:13;;;;;;;27.15;18.15;;;;;;;6.03;100.00;101957.88;6131340;23;20009;-93
2023/12/19 10:07:40;;;;;;;24.73;17.20;;;;;;;6.02;100.00;101951.09;6132408;23;20008;-76
2023/12/19 10:10:07;;;;;;;23.85;16.20;;;;;;;6.06;100.00;101944.97;6125169;23;20416;-80
2023/12/19 10:12:32;;;;;;;23.08;16.90;;;;;;;6.02;100.00;101945.94;6125395;23;20045;-77
2023/12/19 10:15:13;;;;;;;22.65;15.77;;;;;;;6.03;100.00;101955.31;6126161;23;20013;-75
2023/12/19 10:17:38;;;;;;;23.27;16.27;;;;;;;5.74;100.00;101886.84;6126048;23;20006;-76
2023/12/19 10:20:13;;;;;;;24.23;15.60;;;;;;;6.03;100.00;101927.13;6124564;23;20048;-73
2023/12/19 10:22:38;;;;;;;21.05;15.77;;;;;;;6.07;100.00;101941.53;6126085;23;20013;-73
2023/12/19 10:25:04;;;;;;;21.40;15.77;;;;;;;5.99;100.00;101916.09;6126062;23;20085;-76
2023/12/19 10:27:29;;;;;;;22.63;15.75;;;;;;;6.09;100.00;101936.34;6126174;23;20061;-74
2023/12/19 10:30:17;;;;;;;20.35;14.68;;;;;;;6.10;100.00;101935.50;6126581;23;20002;-74
2023/12/19 10:32:43;;;;;;;20.85;14.48;;;;;;;6.12;100.00;101920.91;6126056;23;20456;-72
2023/12/19 10:35:08;;;;;;;19.92;14.63;;;;;;;5.99;100.00;101895.56;6126090;23;20002;-73
2023/12/19 10:37:35;;;;;;;21.77;15.55;;;;;;;5.87;100.00;101861.72;6125672;23;20005;-73
2023/12/19 10:40:14;;;;;;;23.02;14.45;;;;;;;6.14;100.00;101894.34;6126246;23;20324;-73
2023/12/19 10:42:39;;;;;;;21.20;14.55;;;;;;;5.97;100.00;101864.00;6126476;23;20002;-75
2023/12/19 10:45:05;;;;;;;21.58;14.93;;;;;;;6.06;100.00;101880.88;6125771;23;20017;-74
2023/12/19 10:47:31;;;;;;;21.05;14.90;;;;;;;6.02;100.00;101871.59;6125934;23;20376;-76
2023/12/19 10:49:56;;;;;;;21.67;14.82;;;;;;;6.00;100.00;101863.13;6126080;23;20056;-77
2023/12/19 10:52:26;;;;;;;20.75;13.93;;;;;;;6.10;100.00;101873.97;6148746;23;20079;-76
2023/12/19 10:54:59;;;;;;;20.55;14.30;;;;;;;6.16;100.00;101863.50;6124216;23;20005;-78
2023/12/19 10:57:31;;;;;;;21.25;14.23;;;;;;;6.17;100.00;101855.78;6125892;23;20024;-75
2023/12/19 11:00:00;;;;;;;21.17;14.60;;;;;;;6.28;100.00;101852.91;6125987;23;20013;-74
2023/12/19 11:02:40;;;;;;;21.15;14.38;;;;;;;6.31;100.00;101845.97;6125981;23;20368;-76
2023/12/19 11:05:11;;;;;;;21.08;14.48;;;;;;;6.33;100.00;101841.63;6125894;23;20010;-77